sensor_id;sensor_type;location;lat;lon;timestamp;temperature;humidity
22706;DHT22;11520;51.198;4.468;2023-06-04T00:00:51;14.90;94.90
22706;DHT22;11520;51.198;4.468;2023-06-04T00:03:17;14.90;95.70
22706;DHT22;11520;51.198;4.468;2023-06-04T00:05:43;14.90;96.20
22706;DHT22;11520;51.198;4.468;2023-06-04T00:08:08;14.90;97.00
22706;DHT22;11520;51.198;4.468;2023-06-04T00:10:34;14.90;97.80
22706;DHT22;11520;51.198;4.468;2023-06-04T00:13:00;14.90;98.50
22706;DHT22;11520;51.198;4.468;2023-06-04T00:15:26;14.90;99.30
22706;DHT22;11520;51.198;4.468;2023-06-04T00:17:51;14.90;99.90
22706;DHT22;11520;51.198;4.468;2023-06-04T00:20:17;14.90;99.90
22706;DHT22;11520;51.198;4.468;2023-06-04T00:22:43;14.80;99.90
22706;DHT22;11520;51.198;4.468;2023-06-04T00:25:09;14.80;99.90
22706;DHT22;11520;51.198;4.468;2023-06-04T00:27:35;14.80;99.90
22706;DHT22;11520;51.198;4.468;2023-06-04T00:30:01;14.80;99.90
22706;DHT22;11520;51.198;4.468;2023-06-04T00:32:27;14.80;99.90
22706;DHT22;11520;51.198;4.468;2023-06-04T00:34:54;14.70;99.90
22706;DHT22;11520;51.198;4.468;2023-06-04T00:37:22;14.70;99.90
22706;DHT22;11520;51.198;4.468;2023-06-04T00:39:48;14.60;99.90
22706;DHT22;11520;51.198;4.468;2023-06-04T00:42:14;14.60;99.90
22706;DHT22;11520;51.198;4.468;2023-06-04T00:44:39;14.50;99.90
22706;DHT22;11520;51.198;4.468;2023-06-04T00:47:14;14.50;99.90
22706;DHT22;11520;51.198;4.468;2023-06-04T00:49:40;14.60;99.90
22706;DHT22;11520;51.198;4.468;2023-06-04T00:52:10;14.50;99.90
22706;DHT22;11520;51.198;4.468;2023-06-04T00:54:36;14.50;99.90
22706;DHT22;11520;51.198;4.468;2023-06-04T00:57:04;14.40;99.90
22706;DHT22;11520;51.198;4.468;2023-06-04T00:59:30;14.40;99.90
22706;DHT22;11520;51.198;4.468;2023-06-04T01:02:13;14.40;99.90
22706;DHT22;11520;51.198;4.468;2023-06-04T01:04:53;14.40;99.90
22706;DHT22;11520;51.198;4.468;2023-06-04T01:07:21;14.30;99.90
22706;DHT22;11520;51.198;4.468;2023-06-04T01:09:49;14.30;99.90
22706;DHT22;11520;51.198;4.468;2023-06-04T01:12:15;14.20;99.90
22706;DHT22;11520;51.198;4.468;2023-06-04T01:14:41;14.30;99.90
22706;DHT22;11520;51.198;4.468;2023-06-04T01:17:29;14.20;99.90
22706;DHT22;11520;51.198;4.468;2023-06-04T01:20:19;14.10;99.90
22706;DHT22;11520;51.198;4.468;2023-06-04T01:22:59;14.10;99.90
22706;DHT22;11520;51.198;4.468;2023-06-04T01:27:56;14.10;99.90
22706;DHT22;11520;51.198;4.468;2023-06-04T01:30:31;14.10;99.90
22706;DHT22;11520;51.198;4.468;2023-06-04T01:32:58;14.00;99.90
22706;DHT22;11520;51.198;4.468;2023-06-04T01:35:26;14.10;99.90
22706;DHT22;11520;51.198;4.468;2023-06-04T01:37:51;14.10;99.90
22706;DHT22;11520;51.198;4.468;2023-06-04T01:40:18;14.00;99.90
22706;DHT22;11520;51.198;4.468;2023-06-04T01:42:44;14.00;99.90
22706;DHT22;11520;51.198;4.468;2023-06-04T01:45:10;14.00;99.90
22706;DHT22;11520;51.198;4.468;2023-06-04T01:47:36;14.00;99.90
22706;DHT22;11520;51.198;4.468;2023-06-04T01:50:05;14.00;99.90
22706;DHT22;11520;51.198;4.468;2023-06-04T01:52:35;14.00;99.90
22706;DHT22;11520;51.198;4.468;2023-06-04T01:55:00;14.00;99.90
22706;DHT22;11520;51.198;4.468;2023-06-04T01:57:27;13.90;99.90
22706;DHT22;11520;51.198;4.468;2023-06-04T01:59:52;13.90;99.90
22706;DHT22;11520;51.198;4.468;2023-06-04T02:02:18;13.80;99.90
22706;DHT22;11520;51.198;4.468;2023-06-04T02:04:44;13.90;99.90
22706;DHT22;11520;51.198;4.468;2023-06-04T02:07:13;13.70;99.90
22706;DHT22;11520;51.198;4.468;2023-06-04T02:09:43;13.70;99.90
22706;DHT22;11520;51.198;4.468;2023-06-04T02:12:10;13.70;99.90
22706;DHT22;11520;51.198;4.468;2023-06-04T02:14:35;13.80;99.90
22706;DHT22;11520;51.198;4.468;2023-06-04T02:17:02;13.70;99.90
22706;DHT22;11520;51.198;4.468;2023-06-04T02:19:29;13.70;99.90
22706;DHT22;11520;51.198;4.468;2023-06-04T02:21:56;13.70;99.90
22706;DHT22;11520;51.198;4.468;2023-06-04T02:24:22;13.60;99.90
22706;DHT22;11520;51.198;4.468;2023-06-04T02:26:48;13.60;99.90
22706;DHT22;11520;51.198;4.468;2023-06-04T02:29:13;13.50;99.90
22706;DHT22;11520;51.198;4.468;2023-06-04T02:31:39;13.50;99.90
22706;DHT22;11520;51.198;4.468;2023-06-04T02:34:04;13.40;99.90
22706;DHT22;11520;51.198;4.468;2023-06-04T02:36:30;13.50;99.90
22706;DHT22;11520;51.198;4.468;2023-06-04T02:38:55;13.50;99.90
22706;DHT22;11520;51.198;4.468;2023-06-04T02:41:21;13.40;99.90
22706;DHT22;11520;51.198;4.468;2023-06-04T02:43:47;13.30;99.90
22706;DHT22;11520;51.198;4.468;2023-06-04T02:46:13;13.30;99.90
22706;DHT22;11520;51.198;4.468;2023-06-04T02:48:39;13.30;99.90
22706;DHT22;11520;51.198;4.468;2023-06-04T02:51:05;13.30;99.90
22706;DHT22;11520;51.198;4.468;2023-06-04T02:53:31;13.40;99.90
22706;DHT22;11520;51.198;4.468;2023-06-04T02:55:56;13.30;99.90
22706;DHT22;11520;51.198;4.468;2023-06-04T02:58:24;13.30;99.90
22706;DHT22;11520;51.198;4.468;2023-06-04T03:00:52;13.30;99.90
22706;DHT22;11520;51.198;4.468;2023-06-04T03:03:18;13.30;99.90
22706;DHT22;11520;51.198;4.468;2023-06-04T03:05:44;13.30;99.90
22706;DHT22;11520;51.198;4.468;2023-06-04T03:08:09;13.10;99.90
22706;DHT22;11520;51.198;4.468;2023-06-04T03:10:36;13.10;99.90
22706;DHT22;11520;51.198;4.468;2023-06-04T03:13:01;13.10;99.90
22706;DHT22;11520;51.198;4.468;2023-06-04T03:15:27;13.10;99.90
22706;DHT22;11520;51.198;4.468;2023-06-04T03:17:52;13.10;99.90
22706;DHT22;11520;51.198;4.468;2023-06-04T03:20:18;13.10;99.90
22706;DHT22;11520;51.198;4.468;2023-06-04T03:22:43;13.10;99.90
22706;DHT22;11520;51.198;4.468;2023-06-04T03:25:09;13.10;99.90
22706;DHT22;11520;51.198;4.468;2023-06-04T03:27:35;13.00;99.90
22706;DHT22;11520;51.198;4.468;2023-06-04T03:30:02;13.00;99.90
22706;DHT22;11520;51.198;4.468;2023-06-04T03:32:28;13.00;99.90
22706;DHT22;11520;51.198;4.468;2023-06-04T03:34:54;13.00;99.90
22706;DHT22;11520;51.198;4.468;2023-06-04T03:37:19;13.00;99.90
22706;DHT22;11520;51.198;4.468;2023-06-04T03:39:45;13.10;99.90
22706;DHT22;11520;51.198;4.468;2023-06-04T03:42:10;13.10;99.90
22706;DHT22;11520;51.198;4.468;2023-06-04T03:44:36;13.10;99.90
22706;DHT22;11520;51.198;4.468;2023-06-04T03:47:01;13.10;99.90
22706;DHT22;11520;51.198;4.468;2023-06-04T03:49:27;13.20;99.90
22706;DHT22;11520;51.198;4.468;2023-06-04T03:51:53;13.00;99.90
22706;DHT22;11520;51.198;4.468;2023-06-04T03:54:19;13.00;99.90
22706;DHT22;11520;51.198;4.468;2023-06-04T03:56:47;12.90;99.90
22706;DHT22;11520;51.198;4.468;2023-06-04T03:59:13;12.90;99.90
22706;DHT22;11520;51.198;4.468;2023-06-04T04:01:39;13.00;99.90
22706;DHT22;11520;51.198;4.468;2023-06-04T04:04:04;13.10;99.90
22706;DHT22;11520;51.198;4.468;2023-06-04T04:06:30;13.20;99.90
22706;DHT22;11520;51.198;4.468;2023-06-04T04:08:56;13.20;99.90
22706;DHT22;11520;51.198;4.468;2023-06-04T04:11:22;13.10;99.90
22706;DHT22;11520;51.198;4.468;2023-06-04T04:13:48;13.10;99.90
22706;DHT22;11520;51.198;4.468;2023-06-04T04:16:13;13.20;99.90
22706;DHT22;11520;51.198;4.468;2023-06-04T04:18:41;13.20;99.90
22706;DHT22;11520;51.198;4.468;2023-06-04T04:21:07;13.20;99.90
22706;DHT22;11520;51.198;4.468;2023-06-04T04:23:33;13.20;99.90
22706;DHT22;11520;51.198;4.468;2023-06-04T04:25:59;13.30;99.90
22706;DHT22;11520;51.198;4.468;2023-06-04T04:28:28;13.40;99.90
22706;DHT22;11520;51.198;4.468;2023-06-04T04:30:57;13.40;99.90
22706;DHT22;11520;51.198;4.468;2023-06-04T04:33:23;13.60;99.90
22706;DHT22;11520;51.198;4.468;2023-06-04T04:35:50;13.50;99.90
22706;DHT22;11520;51.198;4.468;2023-06-04T04:38:16;13.50;99.90
22706;DHT22;11520;51.198;4.468;2023-06-04T04:40:43;13.60;99.90
22706;DHT22;11520;51.198;4.468;2023-06-04T04:43:08;13.70;99.90
22706;DHT22;11520;51.198;4.468;2023-06-04T04:45:34;13.90;99.90
22706;DHT22;11520;51.198;4.468;2023-06-04T04:48:00;14.00;99.90
22706;DHT22;11520;51.198;4.468;2023-06-04T04:50:26;14.90;99.90
22706;DHT22;11520;51.198;4.468;2023-06-04T04:52:51;16.30;99.90
22706;DHT22;11520;51.198;4.468;2023-06-04T04:55:17;18.00;99.90
22706;DHT22;11520;51.198;4.468;2023-06-04T04:57:42;19.80;99.90
22706;DHT22;11520;51.198;4.468;2023-06-04T05:00:08;20.80;99.20
22706;DHT22;11520;51.198;4.468;2023-06-04T05:02:35;21.90;96.70
22706;DHT22;11520;51.198;4.468;2023-06-04T05:05:02;23.10;93.10
22706;DHT22;11520;51.198;4.468;2023-06-04T05:07:28;23.60;88.10
22706;DHT22;11520;51.198;4.468;2023-06-04T05:09:53;23.80;85.80
22706;DHT22;11520;51.198;4.468;2023-06-04T05:12:19;24.10;83.10
22706;DHT22;11520;51.198;4.468;2023-06-04T05:14:45;24.60;78.60
22706;DHT22;11520;51.198;4.468;2023-06-04T05:17:11;25.50;74.70
22706;DHT22;11520;51.198;4.468;2023-06-04T05:19:38;26.30;70.80
22706;DHT22;11520;51.198;4.468;2023-06-04T05:22:04;25.90;67.50
22706;DHT22;11520;51.198;4.468;2023-06-04T05:24:31;25.50;70.00
22706;DHT22;11520;51.198;4.468;2023-06-04T05:26:58;25.00;67.90
22706;DHT22;11520;51.198;4.468;2023-06-04T05:29:23;24.50;72.30
22706;DHT22;11520;51.198;4.468;2023-06-04T05:31:49;24.60;70.20
22706;DHT22;11520;51.198;4.468;2023-06-04T05:34:15;25.80;67.40
22706;DHT22;11520;51.198;4.468;2023-06-04T05:36:41;25.60;66.30
22706;DHT22;11520;51.198;4.468;2023-06-04T05:39:07;26.30;64.40
22706;DHT22;11520;51.198;4.468;2023-06-04T05:41:34;26.10;63.80
22706;DHT22;11520;51.198;4.468;2023-06-04T05:44:01;24.90;63.70
22706;DHT22;11520;51.198;4.468;2023-06-04T05:46:27;24.30;68.00
22706;DHT22;11520;51.198;4.468;2023-06-04T05:48:52;23.70;69.10
22706;DHT22;11520;51.198;4.468;2023-06-04T05:51:19;24.10;71.10
22706;DHT22;11520;51.198;4.468;2023-06-04T05:53:44;26.00;66.30
22706;DHT22;11520;51.198;4.468;2023-06-04T05:56:10;26.80;62.30
22706;DHT22;11520;51.198;4.468;2023-06-04T05:58:36;27.40;61.80
22706;DHT22;11520;51.198;4.468;2023-06-04T06:01:02;28.60;59.00
22706;DHT22;11520;51.198;4.468;2023-06-04T06:03:28;30.20;55.60
22706;DHT22;11520;51.198;4.468;2023-06-04T06:05:54;30.70;52.40
22706;DHT22;11520;51.198;4.468;2023-06-04T06:08:20;31.90;49.40
22706;DHT22;11520;51.198;4.468;2023-06-04T06:10:46;31.90;47.80
22706;DHT22;11520;51.198;4.468;2023-06-04T06:13:12;31.90;46.00
22706;DHT22;11520;51.198;4.468;2023-06-04T06:15:37;31.00;46.60
22706;DHT22;11520;51.198;4.468;2023-06-04T06:18:04;32.30;46.00
22706;DHT22;11520;51.198;4.468;2023-06-04T06:20:30;33.10;43.00
22706;DHT22;11520;51.198;4.468;2023-06-04T06:22:57;32.60;43.70
22706;DHT22;11520;51.198;4.468;2023-06-04T06:25:23;31.30;44.50
22706;DHT22;11520;51.198;4.468;2023-06-04T06:27:50;32.10;44.40
22706;DHT22;11520;51.198;4.468;2023-06-04T06:30:16;33.00;41.90
22706;DHT22;11520;51.198;4.468;2023-06-04T06:32:42;33.90;40.50
22706;DHT22;11520;51.198;4.468;2023-06-04T06:35:08;35.10;39.50
22706;DHT22;11520;51.198;4.468;2023-06-04T06:37:34;32.70;41.00
22706;DHT22;11520;51.198;4.468;2023-06-04T06:39:59;33.30;39.90
22706;DHT22;11520;51.198;4.468;2023-06-04T06:42:25;34.10;39.20
22706;DHT22;11520;51.198;4.468;2023-06-04T06:44:51;32.90;38.60
22706;DHT22;11520;51.198;4.468;2023-06-04T06:47:16;32.70;39.90
22706;DHT22;11520;51.198;4.468;2023-06-04T06:49:42;32.80;38.70
22706;DHT22;11520;51.198;4.468;2023-06-04T06:52:09;33.30;38.90
22706;DHT22;11520;51.198;4.468;2023-06-04T06:54:35;31.60;39.10
22706;DHT22;11520;51.198;4.468;2023-06-04T06:57:01;29.70;42.90
22706;DHT22;11520;51.198;4.468;2023-06-04T06:59:28;29.70;43.50
22706;DHT22;11520;51.198;4.468;2023-06-04T07:01:53;29.90;42.00
22706;DHT22;11520;51.198;4.468;2023-06-04T07:04:20;28.40;44.10
22706;DHT22;11520;51.198;4.468;2023-06-04T07:06:46;28.40;46.10
22706;DHT22;11520;51.198;4.468;2023-06-04T07:09:13;29.00;44.50
22706;DHT22;11520;51.198;4.468;2023-06-04T07:11:39;29.10;44.70
22706;DHT22;11520;51.198;4.468;2023-06-04T07:14:04;30.40;42.20
22706;DHT22;11520;51.198;4.468;2023-06-04T07:16:30;30.40;41.50
22706;DHT22;11520;51.198;4.468;2023-06-04T07:18:56;30.80;40.70
22706;DHT22;11520;51.198;4.468;2023-06-04T07:21:21;30.60;40.20
22706;DHT22;11520;51.198;4.468;2023-06-04T07:23:49;32.40;40.00
22706;DHT22;11520;51.198;4.468;2023-06-04T07:26:17;33.40;38.50
22706;DHT22;11520;51.198;4.468;2023-06-04T07:28:59;32.10;38.60
22706;DHT22;11520;51.198;4.468;2023-06-04T07:31:25;32.30;37.40
22706;DHT22;11520;51.198;4.468;2023-06-04T07:33:51;31.80;38.90
22706;DHT22;11520;51.198;4.468;2023-06-04T07:36:16;32.60;37.80
22706;DHT22;11520;51.198;4.468;2023-06-04T07:38:43;32.20;37.20
22706;DHT22;11520;51.198;4.468;2023-06-04T07:41:09;32.70;36.10
22706;DHT22;11520;51.198;4.468;2023-06-04T07:43:35;33.50;36.10
22706;DHT22;11520;51.198;4.468;2023-06-04T07:46:04;34.80;34.20
22706;DHT22;11520;51.198;4.468;2023-06-04T07:48:30;34.90;34.10
22706;DHT22;11520;51.198;4.468;2023-06-04T07:51:01;36.20;33.50
22706;DHT22;11520;51.198;4.468;2023-06-04T07:53:27;36.90;32.50
22706;DHT22;11520;51.198;4.468;2023-06-04T07:55:54;36.70;30.90
22706;DHT22;11520;51.198;4.468;2023-06-04T07:58:20;37.70;31.70
22706;DHT22;11520;51.198;4.468;2023-06-04T08:00:46;36.80;29.80
22706;DHT22;11520;51.198;4.468;2023-06-04T08:03:12;34.30;30.40
22706;DHT22;11520;51.198;4.468;2023-06-04T08:05:38;34.40;31.10
22706;DHT22;11520;51.198;4.468;2023-06-04T08:08:03;35.30;31.50
22706;DHT22;11520;51.198;4.468;2023-06-04T08:10:29;36.90;30.20
22706;DHT22;11520;51.198;4.468;2023-06-04T08:12:56;37.80;29.10
22706;DHT22;11520;51.198;4.468;2023-06-04T08:15:21;38.80;28.30
22706;DHT22;11520;51.198;4.468;2023-06-04T08:17:47;39.40;27.30
22706;DHT22;11520;51.198;4.468;2023-06-04T08:20:12;38.50;27.30
22706;DHT22;11520;51.198;4.468;2023-06-04T08:22:39;38.50;27.10
22706;DHT22;11520;51.198;4.468;2023-06-04T08:25:07;39.20;26.60
22706;DHT22;11520;51.198;4.468;2023-06-04T08:27:34;37.10;25.70
22706;DHT22;11520;51.198;4.468;2023-06-04T08:30:00;34.10;27.60
22706;DHT22;11520;51.198;4.468;2023-06-04T08:32:26;31.60;30.80
22706;DHT22;11520;51.198;4.468;2023-06-04T08:34:51;30.80;31.70
22706;DHT22;11520;51.198;4.468;2023-06-04T08:37:18;30.10;31.80
22706;DHT22;11520;51.198;4.468;2023-06-04T08:39:44;30.90;32.90
22706;DHT22;11520;51.198;4.468;2023-06-04T08:42:15;33.20;30.90
22706;DHT22;11520;51.198;4.468;2023-06-04T08:44:49;34.00;29.10
22706;DHT22;11520;51.198;4.468;2023-06-04T08:47:19;31.40;29.20
22706;DHT22;11520;51.198;4.468;2023-06-04T08:49:49;32.10;29.60
22706;DHT22;11520;51.198;4.468;2023-06-04T08:52:16;30.90;29.70
22706;DHT22;11520;51.198;4.468;2023-06-04T08:54:42;32.10;30.30
22706;DHT22;11520;51.198;4.468;2023-06-04T08:57:08;31.80;29.30
22706;DHT22;11520;51.198;4.468;2023-06-04T09:02:00;32.40;29.50
22706;DHT22;11520;51.198;4.468;2023-06-04T09:04:26;32.50;29.30
22706;DHT22;11520;51.198;4.468;2023-06-04T09:06:53;33.20;28.40
22706;DHT22;11520;51.198;4.468;2023-06-04T09:09:20;34.20;28.40
22706;DHT22;11520;51.198;4.468;2023-06-04T09:11:54;33.30;27.10
22706;DHT22;11520;51.198;4.468;2023-06-04T09:14:20;31.60;29.10
22706;DHT22;11520;51.198;4.468;2023-06-04T09:16:49;32.00;29.00
22706;DHT22;11520;51.198;4.468;2023-06-04T09:19:16;30.90;29.00
22706;DHT22;11520;51.198;4.468;2023-06-04T09:21:49;29.70;30.40
22706;DHT22;11520;51.198;4.468;2023-06-04T09:24:16;29.70;30.00
22706;DHT22;11520;51.198;4.468;2023-06-04T09:26:42;29.30;30.50
22706;DHT22;11520;51.198;4.468;2023-06-04T09:29:08;29.50;31.00
22706;DHT22;11520;51.198;4.468;2023-06-04T09:31:34;28.70;31.90
22706;DHT22;11520;51.198;4.468;2023-06-04T09:34:02;28.20;31.40
22706;DHT22;11520;51.198;4.468;2023-06-04T09:36:33;27.20;32.20
22706;DHT22;11520;51.198;4.468;2023-06-04T09:38:58;27.30;34.10
22706;DHT22;11520;51.198;4.468;2023-06-04T09:41:25;27.80;33.00
22706;DHT22;11520;51.198;4.468;2023-06-04T09:43:58;28.20;32.00
22706;DHT22;11520;51.198;4.468;2023-06-04T09:46:25;29.30;31.50
22706;DHT22;11520;51.198;4.468;2023-06-04T09:49:05;29.40;30.20
22706;DHT22;11520;51.198;4.468;2023-06-04T09:51:31;29.90;29.40
22706;DHT22;11520;51.198;4.468;2023-06-04T09:54:00;30.70;30.60
22706;DHT22;11520;51.198;4.468;2023-06-04T09:56:27;29.90;29.20
22706;DHT22;11520;51.198;4.468;2023-06-04T09:59:00;30.10;30.00
22706;DHT22;11520;51.198;4.468;2023-06-04T10:01:28;31.00;28.90
22706;DHT22;11520;51.198;4.468;2023-06-04T10:03:55;32.00;27.90
22706;DHT22;11520;51.198;4.468;2023-06-04T10:06:23;32.40;27.90
22706;DHT22;11520;51.198;4.468;2023-06-04T10:08:52;30.80;29.50
22706;DHT22;11520;51.198;4.468;2023-06-04T10:11:31;32.00;28.30
22706;DHT22;11520;51.198;4.468;2023-06-04T10:14:34;31.10;27.90
22706;DHT22;11520;51.198;4.468;2023-06-04T10:17:01;31.20;28.90
22706;DHT22;11520;51.198;4.468;2023-06-04T10:19:29;31.00;29.30
22706;DHT22;11520;51.198;4.468;2023-06-04T10:21:56;31.50;28.60
22706;DHT22;11520;51.198;4.468;2023-06-04T10:24:22;30.90;29.40
22706;DHT22;11520;51.198;4.468;2023-06-04T10:26:49;32.00;28.80
22706;DHT22;11520;51.198;4.468;2023-06-04T10:29:17;33.60;27.70
22706;DHT22;11520;51.198;4.468;2023-06-04T10:31:43;33.00;27.70
22706;DHT22;11520;51.198;4.468;2023-06-04T10:34:11;32.90;27.10
22706;DHT22;11520;51.198;4.468;2023-06-04T10:36:44;30.60;29.10
22706;DHT22;11520;51.198;4.468;2023-06-04T10:39:11;31.80;29.00
22706;DHT22;11520;51.198;4.468;2023-06-04T10:41:37;29.90;29.20
22706;DHT22;11520;51.198;4.468;2023-06-04T10:44:03;30.80;29.90
22706;DHT22;11520;51.198;4.468;2023-06-04T10:46:39;31.90;29.20
22706;DHT22;11520;51.198;4.468;2023-06-04T10:49:06;32.80;28.50
22706;DHT22;11520;51.198;4.468;2023-06-04T10:51:33;34.20;27.50
22706;DHT22;11520;51.198;4.468;2023-06-04T10:54:00;33.60;27.60
22706;DHT22;11520;51.198;4.468;2023-06-04T10:56:27;34.30;27.30
22706;DHT22;11520;51.198;4.468;2023-06-04T10:58:53;34.30;26.70
22706;DHT22;11520;51.198;4.468;2023-06-04T11:01:30;34.30;26.50
22706;DHT22;11520;51.198;4.468;2023-06-04T11:03:57;34.90;26.40
22706;DHT22;11520;51.198;4.468;2023-06-04T11:06:23;33.40;26.30
22706;DHT22;11520;51.198;4.468;2023-06-04T11:09:03;32.10;27.90
22706;DHT22;11520;51.198;4.468;2023-06-04T11:11:30;31.20;28.40
22706;DHT22;11520;51.198;4.468;2023-06-04T11:14:10;31.40;28.50
22706;DHT22;11520;51.198;4.468;2023-06-04T11:16:38;30.90;29.00
22706;DHT22;11520;51.198;4.468;2023-06-04T11:19:04;33.00;28.40
22706;DHT22;11520;51.198;4.468;2023-06-04T11:21:30;34.10;27.70
22706;DHT22;11520;51.198;4.468;2023-06-04T11:23:59;34.50;27.00
22706;DHT22;11520;51.198;4.468;2023-06-04T11:26:36;31.30;28.70
22706;DHT22;11520;51.198;4.468;2023-06-04T11:29:07;29.60;30.70
22706;DHT22;11520;51.198;4.468;2023-06-04T11:31:46;29.60;31.00
22706;DHT22;11520;51.198;4.468;2023-06-04T11:34:42;30.80;29.80
22706;DHT22;11520;51.198;4.468;2023-06-04T11:37:09;31.50;29.00
22706;DHT22;11520;51.198;4.468;2023-06-04T11:39:36;30.70;29.60
22706;DHT22;11520;51.198;4.468;2023-06-04T11:42:07;29.90;30.10
22706;DHT22;11520;51.198;4.468;2023-06-04T11:44:33;30.40;29.60
22706;DHT22;11520;51.198;4.468;2023-06-04T11:46:59;30.40;29.80
22706;DHT22;11520;51.198;4.468;2023-06-04T11:49:25;29.00;29.70
22706;DHT22;11520;51.198;4.468;2023-06-04T11:51:53;27.10;32.70
22706;DHT22;11520;51.198;4.468;2023-06-04T11:54:20;26.80;33.90
22706;DHT22;11520;51.198;4.468;2023-06-04T11:56:49;27.20;33.90
22706;DHT22;11520;51.198;4.468;2023-06-04T11:59:16;27.70;33.30
22706;DHT22;11520;51.198;4.468;2023-06-04T12:01:43;28.00;33.60
22706;DHT22;11520;51.198;4.468;2023-06-04T12:04:13;28.50;33.50
22706;DHT22;11520;51.198;4.468;2023-06-04T12:06:50;29.10;31.90
22706;DHT22;11520;51.198;4.468;2023-06-04T12:09:23;28.70;32.10
22706;DHT22;11520;51.198;4.468;2023-06-04T12:11:49;27.00;34.30
22706;DHT22;11520;51.198;4.468;2023-06-04T12:14:17;26.70;35.40
22706;DHT22;11520;51.198;4.468;2023-06-04T12:17:05;26.10;36.10
22706;DHT22;11520;51.198;4.468;2023-06-04T12:19:31;26.50;36.40
22706;DHT22;11520;51.198;4.468;2023-06-04T12:24:26;26.30;35.70
22706;DHT22;11520;51.198;4.468;2023-06-04T12:27:04;25.90;36.00
22706;DHT22;11520;51.198;4.468;2023-06-04T12:29:31;26.00;36.30
22706;DHT22;11520;51.198;4.468;2023-06-04T12:32:07;25.00;36.90
22706;DHT22;11520;51.198;4.468;2023-06-04T12:34:36;25.00;38.00
22706;DHT22;11520;51.198;4.468;2023-06-04T12:37:02;25.10;36.90
22706;DHT22;11520;51.198;4.468;2023-06-04T12:39:29;25.20;38.10
22706;DHT22;11520;51.198;4.468;2023-06-04T12:41:55;25.20;37.50
22706;DHT22;11520;51.198;4.468;2023-06-04T12:44:21;25.10;37.00
22706;DHT22;11520;51.198;4.468;2023-06-04T12:46:46;25.30;37.50
22706;DHT22;11520;51.198;4.468;2023-06-04T12:49:12;25.20;37.20
22706;DHT22;11520;51.198;4.468;2023-06-04T12:51:38;25.40;38.00
22706;DHT22;11520;51.198;4.468;2023-06-04T12:54:04;25.30;37.40
22706;DHT22;11520;51.198;4.468;2023-06-04T12:56:30;25.10;37.90
22706;DHT22;11520;51.198;4.468;2023-06-04T12:58:55;25.30;38.10
22706;DHT22;11520;51.198;4.468;2023-06-04T13:01:21;24.90;37.40
22706;DHT22;11520;51.198;4.468;2023-06-04T13:03:47;24.80;38.30
22706;DHT22;11520;51.198;4.468;2023-06-04T13:06:12;25.00;38.60
22706;DHT22;11520;51.198;4.468;2023-06-04T13:08:38;25.10;38.30
22706;DHT22;11520;51.198;4.468;2023-06-04T13:11:04;25.10;38.10
22706;DHT22;11520;51.198;4.468;2023-06-04T13:13:30;25.20;38.00
22706;DHT22;11520;51.198;4.468;2023-06-04T13:15:56;25.30;38.30
22706;DHT22;11520;51.198;4.468;2023-06-04T13:18:22;25.50;38.60
22706;DHT22;11520;51.198;4.468;2023-06-04T13:20:48;25.60;37.90
22706;DHT22;11520;51.198;4.468;2023-06-04T13:23:14;25.50;37.70
22706;DHT22;11520;51.198;4.468;2023-06-04T13:25:40;25.40;38.60
22706;DHT22;11520;51.198;4.468;2023-06-04T13:28:06;25.00;38.70
22706;DHT22;11520;51.198;4.468;2023-06-04T13:30:37;24.80;39.00
22706;DHT22;11520;51.198;4.468;2023-06-04T13:33:04;24.80;39.50
22706;DHT22;11520;51.198;4.468;2023-06-04T13:35:30;25.00;38.60
22706;DHT22;11520;51.198;4.468;2023-06-04T13:37:58;25.20;38.90
22706;DHT22;11520;51.198;4.468;2023-06-04T13:40:23;25.30;38.90
22706;DHT22;11520;51.198;4.468;2023-06-04T13:42:49;25.20;38.80
22706;DHT22;11520;51.198;4.468;2023-06-04T13:45:15;24.90;38.80
22706;DHT22;11520;51.198;4.468;2023-06-04T13:47:43;25.00;38.70
22706;DHT22;11520;51.198;4.468;2023-06-04T13:50:09;25.20;39.00
22706;DHT22;11520;51.198;4.468;2023-06-04T13:52:35;25.40;38.50
22706;DHT22;11520;51.198;4.468;2023-06-04T13:55:01;25.20;38.50
22706;DHT22;11520;51.198;4.468;2023-06-04T13:57:27;24.90;39.30
22706;DHT22;11520;51.198;4.468;2023-06-04T13:59:53;24.90;39.70
22706;DHT22;11520;51.198;4.468;2023-06-04T14:02:19;25.00;39.10
22706;DHT22;11520;51.198;4.468;2023-06-04T14:04:45;24.90;39.30
22706;DHT22;11520;51.198;4.468;2023-06-04T14:07:10;24.90;39.40
22706;DHT22;11520;51.198;4.468;2023-06-04T14:09:36;25.10;39.30
22706;DHT22;11520;51.198;4.468;2023-06-04T14:12:02;25.10;39.00
22706;DHT22;11520;51.198;4.468;2023-06-04T14:14:28;25.20;39.10
22706;DHT22;11520;51.198;4.468;2023-06-04T14:17:01;24.90;38.90
22706;DHT22;11520;51.198;4.468;2023-06-04T14:19:27;24.90;39.10
22706;DHT22;11520;51.198;4.468;2023-06-04T14:21:53;24.70;39.30
22706;DHT22;11520;51.198;4.468;2023-06-04T14:24:19;24.90;39.70
22706;DHT22;11520;51.198;4.468;2023-06-04T14:26:44;25.00;39.40
22706;DHT22;11520;51.198;4.468;2023-06-04T14:29:11;24.80;39.30
22706;DHT22;11520;51.198;4.468;2023-06-04T14:31:36;24.60;40.30
22706;DHT22;11520;51.198;4.468;2023-06-04T14:34:02;24.70;40.30
22706;DHT22;11520;51.198;4.468;2023-06-04T14:36:28;24.80;40.40
22706;DHT22;11520;51.198;4.468;2023-06-04T14:38:54;24.80;40.60
22706;DHT22;11520;51.198;4.468;2023-06-04T14:41:19;25.00;39.70
22706;DHT22;11520;51.198;4.468;2023-06-04T14:43:45;25.20;39.30
22706;DHT22;11520;51.198;4.468;2023-06-04T14:46:10;25.20;39.30
22706;DHT22;11520;51.198;4.468;2023-06-04T14:48:36;25.10;39.00
22706;DHT22;11520;51.198;4.468;2023-06-04T14:51:01;24.80;40.10
22706;DHT22;11520;51.198;4.468;2023-06-04T14:53:27;24.90;40.70
22706;DHT22;11520;51.198;4.468;2023-06-04T14:55:52;25.10;39.50
22706;DHT22;11520;51.198;4.468;2023-06-04T14:58:18;24.90;39.80
22706;DHT22;11520;51.198;4.468;2023-06-04T15:00:44;25.10;40.10
22706;DHT22;11520;51.198;4.468;2023-06-04T15:03:10;25.00;39.90
22706;DHT22;11520;51.198;4.468;2023-06-04T15:05:36;25.20;39.60
22706;DHT22;11520;51.198;4.468;2023-06-04T15:08:02;25.20;39.50
22706;DHT22;11520;51.198;4.468;2023-06-04T15:10:28;25.40;39.60
22706;DHT22;11520;51.198;4.468;2023-06-04T15:12:54;25.30;40.00
22706;DHT22;11520;51.198;4.468;2023-06-04T15:15:20;24.90;39.70
22706;DHT22;11520;51.198;4.468;2023-06-04T15:17:46;24.90;40.40
22706;DHT22;11520;51.198;4.468;2023-06-04T15:20:11;24.90;40.10
22706;DHT22;11520;51.198;4.468;2023-06-04T15:22:37;24.90;40.30
22706;DHT22;11520;51.198;4.468;2023-06-04T15:25:03;24.90;40.70
22706;DHT22;11520;51.198;4.468;2023-06-04T15:27:28;24.70;40.90
22706;DHT22;11520;51.198;4.468;2023-06-04T15:29:54;24.60;40.90
22706;DHT22;11520;51.198;4.468;2023-06-04T15:32:20;24.80;40.70
22706;DHT22;11520;51.198;4.468;2023-06-04T15:34:46;25.00;40.80
22706;DHT22;11520;51.198;4.468;2023-06-04T15:37:12;25.10;41.00